SILO ALERT LOG
| Silo ID | Alert Type | Alert Message | Silo Type | Points | Depth (mm) | Strength | Temperature (°C) | Humidity (%) | Height (mm) | Volume (㎥) | Weight (t) | Flag | Time |
|---|---|---|---|---|---|---|---|---|---|---|---|---|---|
| DJSSD12 | Temperature | 온도센서 상태 이상 | 호퍼 | 0 | 11350 | 0 | -999 | -999 | -120 | 0 | 0 | 31 | 2024-01-12 03:39:25.000 |
| DJHNR03 | Temperature | 온도센서 상태 이상 | 호퍼 | 0 | 15500 | 0 | -999 | -999 | -119 | 0 | 0 | 31 | 2024-01-12 03:39:24.000 |
| DJHNR12 | Humidity | 습도센서 측정값이 80% 초과 | 호퍼 | 0 | 10500 | 0 | 2.2 | 81.7 | -120 | 0 | 0 | 31 | 2024-01-12 03:39:23.000 |
| DJSAD01 | Humidity | 습도센서 측정값이 80% 초과 | 평 | 459 | 1539 | 7466 | 2.7 | 87 | 7240 | 299.716 | 189.481 | 0 | 2024-01-12 02:39:40.000 |
| DJSAD02 | Humidity | 습도센서 측정값이 80% 초과 | 평 | 371 | 1149 | 4359 | 3.3 | 86.8 | 7630 | 315.883 | 199.701 | 11 | 2024-01-12 02:39:39.000 |
| DJSAD03 | Humidity | 습도센서 측정값이 80% 초과 | 평 | 442 | 1709 | 6138 | 4.1 | 84.5 | 7070 | 292.694 | 185.041 | 0 | 2024-01-12 02:39:39.000 |
| DJSAD05 | Humidity | 습도센서 측정값이 80% 초과 | 평 | 498 | 888 | 15292 | 3.2 | 80.2 | 7891 | 326.685 | 206.53 | 11 | 2024-01-12 02:39:38.000 |
| DJSSD01 | Humidity | 습도센서 측정값이 80% 초과 | 평 | 787 | 2573 | 4675 | 6.4 | 83.1 | 5506 | 766.371 | 484.499 | 0 | 2024-01-12 02:39:33.000 |
| DJSAD12 | Humidity | 습도센서 측정값이 80% 초과 | 평 | 0 | 7700 | 0 | 5.3 | 84.5 | -120 | -17.075 | 0 | 31 | 2024-01-12 02:39:33.000 |
| DJSSD05 | Temperature | 온도센서 측정값이 0도 미만 | 평 | 835 | 2557 | 4869 | -45.4 | 43.5 | 5522 | 768.665 | 485.95 | 0 | 2024-01-12 02:39:33.000 |
| DJSSD04 | Temperature | 온도센서 상태 이상 | 평 | 0 | 8200 | 0 | -999 | -999 | -120 | -16.702 | 0 | 31 | 2024-01-12 02:39:33.000 |
| DJDJD04 | Humidity | 습도센서 측정값이 80% 초과 | 평 | 278 | 4201 | 4399 | 5.1 | 81.3 | 3478 | 421.39 | 266.403 | 11 | 2024-01-12 02:39:32.000 |
| DJHNR01 | Humidity | 습도센서 측정값이 80% 초과 | 호퍼 | 471 | 4315 | 4878 | 7.6 | 99.9 | 11064 | 472.277 | 298.573 | 13 | 2024-01-12 02:39:32.000 |
| DJSSD09 | Temperature | 온도센서 측정값이 0도 미만 | 평 | 117 | 2911 | 2926 | -45.4 | 0 | 4768 | 663.677 | 419.577 | 11 | 2024-01-12 02:39:31.000 |
| DJSAD08 | Humidity | 습도센서 측정값이 80% 초과 | 평 | 587 | 2499 | 4570 | 10.3 | 82.9 | 5080 | 722.846 | 456.983 | 29 | 2024-01-12 02:39:31.000 |
| DJSAD07 | Humidity | 습도센서 측정값이 80% 초과 | 평 | 282 | 2448 | 3322 | 3.7 | 81.4 | 5131 | 730.22 | 461.645 | 11 | 2024-01-12 02:39:30.000 |
| DJSAD18 | Humidity | 습도센서 측정값이 80% 초과 | 평 | 115 | 1407 | 5840 | 5.8 | 80.8 | 6172 | 614.649 | 388.581 | 11 | 2024-01-12 02:39:30.000 |
| DJHNR03 | Temperature | 온도센서 상태 이상 | 호퍼 | 0 | 15500 | 0 | -999 | -999 | -119 | 0 | 0 | 31 | 2024-01-12 02:39:24.000 |
| DJSSD12 | Temperature | 온도센서 상태 이상 | 호퍼 | 0 | 11350 | 0 | -999 | -999 | -120 | 0 | 0 | 31 | 2024-01-12 02:39:24.000 |
| DJHNR12 | Humidity | 습도센서 측정값이 80% 초과 | 호퍼 | 0 | 10500 | 0 | 3 | 81.7 | -120 | 0 | 0 | 31 | 2024-01-12 02:39:23.000 |
[첫 페이지] [9986] [9987] [9988] [9989] 9990 [9991] [9992] [9993] [9994] [마지막 페이지]